Aeroporto :
LOGIN :

Iscrizione | Disclaimer

   EN    FR    IT 

 










Sommario :    VFR   VFR Marginale   IFR   IFR Intensivo   IFR Molto Intensivo
Visibilità : 
Base nubi : 
>= 8 km
>= 3000ft
5 / 8 km
1000 / 3000 ft
1500m / 5 km
500 / 1000 ft
800 / 1500m
200 / 500 ft
< 800m
< 200 ft
Simboli :   Temporali  Nebbia  Neve Forte  Precipitazioni Forti  Vento > 20 kt
SIGMETs :   Varie  Temporali  Ghiacco  Turbolenza  Onda orograficha  Ceneri Vulcaniche







- Altitudine del aeroporto : 65 ft
- Codice IATA : PIK
- Carte del aeroporto


EGPK - Glasgow Prestwick

ULTIMO METAR :
  • 261020Z 24012KT 9999 FEW018 BKN040 09/06 Q1032

METARs OBSOLETI :
  • 260950Z 25010KT 9999 FEW018 BKN040 09/06 Q1032
  • 260920Z 24011KT 9999 FEW018 BKN040 09/06 Q1033
  • 260850Z 24009KT 9999 FEW018 BKN040 08/06 Q1033
  • 260820Z 25011KT 9999 FEW018 SCT030 BKN045 08/05 Q1032
  • 260750Z 25011KT 9999 FEW018 SCT030 08/05 Q1032

TAF TAF EGPK
Valido dal 26 a 06 ore il 27 a 06 ore UTC


260454Z 2606/2706 24009KT 9999 SCT020 BKN035
TEMPO 2606/2615 25015G25KT
PROB30
TEMPO 2606/2706 8000 -RA BKN014
Nessun NOTAM noto per questo aeroporto.



MetMap, La meteo Aeronautica in un colpo d'occhio ! - Copyright ORBIFLY Dicembre 2007 - Disclaimer

ORBIFLY MET'MAP TEAM :

Programmazione e sviluppo : Alexandra Zaïnal
Concezione e sviluppo : Baudouin d'Aumeries
Co-Programmazione e sviluppo : Marc-Olivier Méhu
Supporto tecnico e logistico : Manuel Goepfert
Aiuto per la traduzione : Arnaldo La Scala

Contatto : metmap@orbifly.com




FONTI E CREDITI :

   NOAA